sensor_id;sensor_type;location;lat;lon;timestamp;P1;durP1;ratioP1;P2;durP2;ratioP2
40588;SDS011;26297;49.450;6.640;2024-03-02T12:37:56;0.65;;;0.28;;
40588;SDS011;26297;49.450;6.640;2024-03-02T12:40:59;0.22;;;0.22;;
40588;SDS011;26297;49.450;6.640;2024-03-02T12:44:03;0.40;;;0.28;;
40588;SDS011;26297;49.450;6.640;2024-03-02T12:47:07;0.52;;;0.30;;
40588;SDS011;26297;49.450;6.640;2024-03-02T12:50:11;0.73;;;0.30;;
40588;SDS011;26297;49.450;6.640;2024-03-02T12:53:20;0.65;;;0.40;;
40588;SDS011;26297;49.450;6.640;2024-03-02T12:56:24;0.30;;;0.30;;
40588;SDS011;26297;49.450;6.640;2024-03-02T12:59:28;0.70;;;0.40;;
40588;SDS011;26297;49.450;6.640;2024-03-02T13:02:32;0.77;;;0.65;;
40588;SDS011;26297;49.450;6.640;2024-03-02T13:05:35;0.57;;;0.30;;
40588;SDS011;26297;49.450;6.640;2024-03-02T13:08:49;2.53;;;0.40;;
40588;SDS011;26297;49.450;6.640;2024-03-02T13:12:01;1.08;;;0.40;;
40588;SDS011;26297;49.450;6.640;2024-03-02T13:15:06;0.73;;;0.30;;
40588;SDS011;26297;49.450;6.640;2024-03-02T13:18:19;0.20;;;0.10;;
40588;SDS011;26297;49.450;6.640;2024-03-02T13:21:46;0.20;;;0.20;;
40588;SDS011;26297;49.450;6.640;2024-03-02T13:24:55;0.40;;;0.30;;
40588;SDS011;26297;49.450;6.640;2024-03-02T13:28:08;0.63;;;0.60;;
40588;SDS011;26297;49.450;6.640;2024-03-02T13:31:16;0.20;;;0.20;;
40588;SDS011;26297;49.450;6.640;2024-03-02T13:34:19;0.70;;;0.50;;
40588;SDS011;26297;49.450;6.640;2024-03-02T13:37:26;0.30;;;0.28;;
40588;SDS011;26297;49.450;6.640;2024-03-02T13:40:34;0.63;;;0.50;;
40588;SDS011;26297;49.450;6.640;2024-03-02T13:43:38;0.20;;;0.20;;
40588;SDS011;26297;49.450;6.640;2024-03-02T13:46:42;0.57;;;0.50;;
40588;SDS011;26297;49.450;6.640;2024-03-02T13:49:51;0.52;;;0.30;;
40588;SDS011;26297;49.450;6.640;2024-03-02T13:52:55;0.20;;;0.20;;
40588;SDS011;26297;49.450;6.640;2024-03-02T13:55:59;1.25;;;0.32;;
40588;SDS011;26297;49.450;6.640;2024-03-02T13:59:02;0.40;;;0.40;;
40588;SDS011;26297;49.450;6.640;2024-03-02T14:02:05;0.20;;;0.13;;
40588;SDS011;26297;49.450;6.640;2024-03-02T14:05:08;0.55;;;0.55;;
40588;SDS011;26297;49.450;6.640;2024-03-02T14:08:14;0.77;;;0.40;;
40588;SDS011;26297;49.450;6.640;2024-03-02T14:11:17;0.40;;;0.40;;
40588;SDS011;26297;49.450;6.640;2024-03-02T14:14:20;1.00;;;0.73;;
40588;SDS011;26297;49.450;6.640;2024-03-02T14:17:24;1.85;;;0.40;;
40588;SDS011;26297;49.450;6.640;2024-03-02T14:20:28;0.50;;;0.50;;
40588;SDS011;26297;49.450;6.640;2024-03-02T14:23:31;1.50;;;0.47;;
40588;SDS011;26297;49.450;6.640;2024-03-02T14:26:35;1.08;;;0.50;;
40588;SDS011;26297;49.450;6.640;2024-03-02T14:29:40;0.40;;;0.38;;
40588;SDS011;26297;49.450;6.640;2024-03-02T14:32:46;1.38;;;0.50;;
40588;SDS011;26297;49.450;6.640;2024-03-02T14:35:55;0.30;;;0.30;;
40588;SDS011;26297;49.450;6.640;2024-03-02T14:38:58;0.30;;;0.23;;
40588;SDS011;26297;49.450;6.640;2024-03-02T14:42:02;0.32;;;0.32;;
40588;SDS011;26297;49.450;6.640;2024-03-02T14:45:05;0.70;;;0.40;;
40588;SDS011;26297;49.450;6.640;2024-03-02T14:48:08;0.88;;;0.50;;
40588;SDS011;26297;49.450;6.640;2024-03-02T14:51:11;0.77;;;0.60;;
40588;SDS011;26297;49.450;6.640;2024-03-02T14:54:15;0.93;;;0.70;;
40588;SDS011;26297;49.450;6.640;2024-03-02T14:57:18;1.00;;;0.63;;
40588;SDS011;26297;49.450;6.640;2024-03-02T15:00:21;1.70;;;1.13;;
40588;SDS011;26297;49.450;6.640;2024-03-02T15:03:24;1.35;;;0.90;;
40588;SDS011;26297;49.450;6.640;2024-03-02T15:06:27;1.45;;;0.73;;
40588;SDS011;26297;49.450;6.640;2024-03-02T15:09:30;1.73;;;0.60;;
40588;SDS011;26297;49.450;6.640;2024-03-02T15:12:34;1.58;;;0.73;;
40588;SDS011;26297;49.450;6.640;2024-03-02T15:15:37;0.77;;;0.77;;
40588;SDS011;26297;49.450;6.640;2024-03-02T15:18:41;1.08;;;0.40;;
40588;SDS011;26297;49.450;6.640;2024-03-02T15:21:44;1.20;;;1.05;;
40588;SDS011;26297;49.450;6.640;2024-03-02T15:24:47;1.20;;;0.95;;
40588;SDS011;26297;49.450;6.640;2024-03-02T15:27:50;0.77;;;0.68;;
40588;SDS011;26297;49.450;6.640;2024-03-02T15:30:54;0.95;;;0.70;;
40588;SDS011;26297;49.450;6.640;2024-03-02T15:33:57;1.65;;;0.40;;
40588;SDS011;26297;49.450;6.640;2024-03-02T15:37:01;0.68;;;0.63;;
40588;SDS011;26297;49.450;6.640;2024-03-02T15:40:06;1.50;;;0.98;;
40588;SDS011;26297;49.450;6.640;2024-03-02T15:43:11;0.80;;;0.52;;
40588;SDS011;26297;49.450;6.640;2024-03-02T15:46:14;4.22;;;0.55;;
40588;SDS011;26297;49.450;6.640;2024-03-02T15:49:17;0.73;;;0.63;;
40588;SDS011;26297;49.450;6.640;2024-03-02T15:52:20;0.50;;;0.40;;
40588;SDS011;26297;49.450;6.640;2024-03-02T15:55:24;1.23;;;0.60;;
40588;SDS011;26297;49.450;6.640;2024-03-02T15:58:27;0.85;;;0.60;;
40588;SDS011;26297;49.450;6.640;2024-03-02T16:01:30;0.73;;;0.50;;
40588;SDS011;26297;49.450;6.640;2024-03-02T16:04:34;0.70;;;0.65;;
40588;SDS011;26297;49.450;6.640;2024-03-02T16:07:37;2.15;;;0.80;;
40588;SDS011;26297;49.450;6.640;2024-03-02T16:10:40;0.95;;;0.60;;
40588;SDS011;26297;49.450;6.640;2024-03-02T16:13:43;0.50;;;0.50;;
40588;SDS011;26297;49.450;6.640;2024-03-02T16:16:46;2.05;;;0.73;;
40588;SDS011;26297;49.450;6.640;2024-03-02T16:19:49;0.73;;;0.50;;
40588;SDS011;26297;49.450;6.640;2024-03-02T16:22:52;1.20;;;0.70;;
40588;SDS011;26297;49.450;6.640;2024-03-02T16:25:55;2.72;;;0.63;;
40588;SDS011;26297;49.450;6.640;2024-03-02T16:28:58;5.18;;;0.50;;
40588;SDS011;26297;49.450;6.640;2024-03-02T16:32:01;0.80;;;0.40;;
40588;SDS011;26297;49.450;6.640;2024-03-02T16:35:04;1.23;;;0.32;;
40588;SDS011;26297;49.450;6.640;2024-03-02T16:38:08;0.60;;;0.47;;
40588;SDS011;26297;49.450;6.640;2024-03-02T16:41:12;1.08;;;0.75;;
40588;SDS011;26297;49.450;6.640;2024-03-02T16:44:16;1.60;;;0.60;;
40588;SDS011;26297;49.450;6.640;2024-03-02T16:47:21;0.73;;;0.60;;
40588;SDS011;26297;49.450;6.640;2024-03-02T16:50:24;1.45;;;0.70;;
40588;SDS011;26297;49.450;6.640;2024-03-02T16:53:27;0.70;;;0.40;;
40588;SDS011;26297;49.450;6.640;2024-03-02T16:56:37;0.75;;;0.73;;
40588;SDS011;26297;49.450;6.640;2024-03-02T16:59:44;0.98;;;0.77;;
40588;SDS011;26297;49.450;6.640;2024-03-02T17:02:48;3.30;;;1.20;;
40588;SDS011;26297;49.450;6.640;2024-03-02T17:05:51;1.20;;;0.85;;
40588;SDS011;26297;49.450;6.640;2024-03-02T17:08:54;0.98;;;0.90;;
40588;SDS011;26297;49.450;6.640;2024-03-02T17:11:58;1.60;;;1.05;;
40588;SDS011;26297;49.450;6.640;2024-03-02T17:15:00;1.23;;;0.60;;
40588;SDS011;26297;49.450;6.640;2024-03-02T17:18:03;1.58;;;0.60;;
40588;SDS011;26297;49.450;6.640;2024-03-02T17:21:07;1.73;;;0.95;;
40588;SDS011;26297;49.450;6.640;2024-03-02T17:25:21;1.67;;;1.00;;
40588;SDS011;26297;49.450;6.640;2024-03-02T17:28:25;2.17;;;1.52;;
40588;SDS011;26297;49.450;6.640;2024-03-02T17:31:28;1.55;;;1.10;;
40588;SDS011;26297;49.450;6.640;2024-03-02T17:34:32;1.55;;;0.95;;
40588;SDS011;26297;49.450;6.640;2024-03-02T17:37:35;0.45;;;0.45;;
40588;SDS011;26297;49.450;6.640;2024-03-02T17:40:41;1.08;;;0.50;;
40588;SDS011;26297;49.450;6.640;2024-03-02T17:43:46;0.95;;;0.82;;
40588;SDS011;26297;49.450;6.640;2024-03-02T17:46:48;0.85;;;0.40;;
40588;SDS011;26297;49.450;6.640;2024-03-02T17:49:51;2.35;;;0.93;;
40588;SDS011;26297;49.450;6.640;2024-03-02T17:52:54;0.82;;;0.50;;
40588;SDS011;26297;49.450;6.640;2024-03-02T17:55:57;1.27;;;1.00;;
40588;SDS011;26297;49.450;6.640;2024-03-02T17:59:00;3.40;;;0.95;;
40588;SDS011;26297;49.450;6.640;2024-03-02T18:02:03;1.65;;;1.00;;
40588;SDS011;26297;49.450;6.640;2024-03-02T18:05:07;2.78;;;0.73;;
40588;SDS011;26297;49.450;6.640;2024-03-02T18:08:11;2.13;;;0.85;;
40588;SDS011;26297;49.450;6.640;2024-03-02T18:11:17;1.10;;;0.70;;
40588;SDS011;26297;49.450;6.640;2024-03-02T18:14:21;1.60;;;1.08;;
40588;SDS011;26297;49.450;6.640;2024-03-02T18:17:25;1.20;;;0.85;;
40588;SDS011;26297;49.450;6.640;2024-03-02T18:20:34;0.82;;;0.68;;
40588;SDS011;26297;49.450;6.640;2024-03-02T18:23:37;0.90;;;0.73;;
40588;SDS011;26297;49.450;6.640;2024-03-02T18:26:40;1.05;;;0.60;;
40588;SDS011;26297;49.450;6.640;2024-03-02T18:29:44;0.80;;;0.80;;
40588;SDS011;26297;49.450;6.640;2024-03-02T18:32:47;0.80;;;0.80;;
40588;SDS011;26297;49.450;6.640;2024-03-02T18:35:50;2.05;;;0.68;;
40588;SDS011;26297;49.450;6.640;2024-03-02T18:42:55;1.70;;;1.35;;
40588;SDS011;26297;49.450;6.640;2024-03-02T18:45:57;0.98;;;0.60;;
40588;SDS011;26297;49.450;6.640;2024-03-02T18:49:02;1.40;;;0.93;;
40588;SDS011;26297;49.450;6.640;2024-03-02T18:52:05;0.60;;;0.52;;
40588;SDS011;26297;49.450;6.640;2024-03-02T18:55:08;1.70;;;1.15;;
40588;SDS011;26297;49.450;6.640;2024-03-02T18:58:12;3.28;;;2.22;;
40588;SDS011;26297;49.450;6.640;2024-03-02T19:01:18;5.00;;;1.98;;
40588;SDS011;26297;49.450;6.640;2024-03-02T19:04:22;1.75;;;1.30;;
40588;SDS011;26297;49.450;6.640;2024-03-02T19:07:29;3.25;;;2.15;;
40588;SDS011;26297;49.450;6.640;2024-03-02T19:14:30;3.63;;;2.10;;
40588;SDS011;26297;49.450;6.640;2024-03-02T19:17:34;2.90;;;1.35;;
40588;SDS011;26297;49.450;6.640;2024-03-02T19:20:45;1.48;;;1.23;;
40588;SDS011;26297;49.450;6.640;2024-03-02T19:23:54;1.42;;;1.20;;
40588;SDS011;26297;49.450;6.640;2024-03-02T19:27:03;2.35;;;1.65;;
40588;SDS011;26297;49.450;6.640;2024-03-02T19:30:15;1.23;;;0.82;;
40588;SDS011;26297;49.450;6.640;2024-03-02T19:33:15;1.25;;;1.13;;
40588;SDS011;26297;49.450;6.640;2024-03-02T19:36:18;1.70;;;1.20;;
40588;SDS011;26297;49.450;6.640;2024-03-02T19:39:22;1.05;;;0.98;;
40588;SDS011;26297;49.450;6.640;2024-03-02T19:42:32;1.17;;;1.08;;
40588;SDS011;26297;49.450;6.640;2024-03-02T19:45:38;1.45;;;1.30;;
40588;SDS011;26297;49.450;6.640;2024-03-02T19:48:41;1.20;;;1.08;;
40588;SDS011;26297;49.450;6.640;2024-03-02T19:51:45;2.67;;;1.52;;
40588;SDS011;26297;49.450;6.640;2024-03-02T19:54:48;0.60;;;0.60;;
40588;SDS011;26297;49.450;6.640;2024-03-02T19:57:52;1.70;;;0.93;;
40588;SDS011;26297;49.450;6.640;2024-03-02T20:00:55;1.35;;;1.20;;
40588;SDS011;26297;49.450;6.640;2024-03-02T20:04:02;1.00;;;0.40;;
40588;SDS011;26297;49.450;6.640;2024-03-02T20:07:06;1.35;;;0.95;;
40588;SDS011;26297;49.450;6.640;2024-03-02T20:10:10;1.27;;;1.00;;
40588;SDS011;26297;49.450;6.640;2024-03-02T20:13:15;1.40;;;1.30;;
40588;SDS011;26297;49.450;6.640;2024-03-02T20:16:21;0.80;;;0.80;;
40588;SDS011;26297;49.450;6.640;2024-03-02T20:19:27;1.52;;;1.05;;
40588;SDS011;26297;49.450;6.640;2024-03-02T20:22:44;2.40;;;1.80;;
40588;SDS011;26297;49.450;6.640;2024-03-02T20:25:48;1.23;;;1.08;;
40588;SDS011;26297;49.450;6.640;2024-03-02T20:28:51;4.50;;;1.35;;
40588;SDS011;26297;49.450;6.640;2024-03-02T20:31:56;2.03;;;1.08;;
40588;SDS011;26297;49.450;6.640;2024-03-02T20:35:01;1.30;;;1.17;;
40588;SDS011;26297;49.450;6.640;2024-03-02T20:38:05;1.88;;;1.20;;
40588;SDS011;26297;49.450;6.640;2024-03-02T20:41:15;2.30;;;1.40;;
40588;SDS011;26297;49.450;6.640;2024-03-02T20:44:19;2.03;;;1.10;;
40588;SDS011;26297;49.450;6.640;2024-03-02T20:47:23;1.25;;;1.08;;
40588;SDS011;26297;49.450;6.640;2024-03-02T20:50:27;1.08;;;0.98;;
40588;SDS011;26297;49.450;6.640;2024-03-02T20:53:30;1.58;;;1.35;;
40588;SDS011;26297;49.450;6.640;2024-03-02T20:56:33;1.77;;;1.10;;
40588;SDS011;26297;49.450;6.640;2024-03-02T20:59:38;1.77;;;1.20;;
40588;SDS011;26297;49.450;6.640;2024-03-02T21:02:42;2.78;;;1.25;;
40588;SDS011;26297;49.450;6.640;2024-03-02T21:05:47;2.60;;;2.00;;
40588;SDS011;26297;49.450;6.640;2024-03-02T21:08:51;3.00;;;1.65;;
40588;SDS011;26297;49.450;6.640;2024-03-02T21:11:54;2.67;;;1.25;;
40588;SDS011;26297;49.450;6.640;2024-03-02T21:14:57;2.50;;;1.42;;
40588;SDS011;26297;49.450;6.640;2024-03-02T21:18:00;1.15;;;1.05;;
40588;SDS011;26297;49.450;6.640;2024-03-02T21:21:07;1.98;;;1.15;;
40588;SDS011;26297;49.450;6.640;2024-03-02T21:24:11;1.20;;;1.10;;
40588;SDS011;26297;49.450;6.640;2024-03-02T21:27:15;1.63;;;1.02;;
40588;SDS011;26297;49.450;6.640;2024-03-02T21:30:18;1.92;;;1.30;;
40588;SDS011;26297;49.450;6.640;2024-03-02T21:33:21;1.85;;;0.70;;
40588;SDS011;26297;49.450;6.640;2024-03-02T21:36:25;1.48;;;0.90;;
40588;SDS011;26297;49.450;6.640;2024-03-02T21:39:28;1.00;;;0.80;;
40588;SDS011;26297;49.450;6.640;2024-03-02T21:42:31;1.52;;;0.80;;
40588;SDS011;26297;49.450;6.640;2024-03-02T21:45:34;1.48;;;1.13;;
40588;SDS011;26297;49.450;6.640;2024-03-02T21:48:38;0.98;;;0.70;;
40588;SDS011;26297;49.450;6.640;2024-03-02T21:51:41;0.65;;;0.65;;
40588;SDS011;26297;49.450;6.640;2024-03-02T21:54:44;0.88;;;0.80;;
40588;SDS011;26297;49.450;6.640;2024-03-02T21:57:48;1.90;;;1.02;;
40588;SDS011;26297;49.450;6.640;2024-03-02T22:00:52;0.85;;;0.85;;
40588;SDS011;26297;49.450;6.640;2024-03-02T22:03:55;1.98;;;1.77;;
40588;SDS011;26297;49.450;6.640;2024-03-02T22:06:59;1.45;;;1.00;;
40588;SDS011;26297;49.450;6.640;2024-03-02T22:10:02;1.48;;;1.27;;
40588;SDS011;26297;49.450;6.640;2024-03-02T22:13:07;3.50;;;1.38;;
40588;SDS011;26297;49.450;6.640;2024-03-02T22:16:10;3.17;;;1.52;;
40588;SDS011;26297;49.450;6.640;2024-03-02T22:19:13;1.73;;;1.17;;
40588;SDS011;26297;49.450;6.640;2024-03-02T22:22:16;2.58;;;1.88;;
40588;SDS011;26297;49.450;6.640;2024-03-02T22:25:20;3.05;;;1.52;;
40588;SDS011;26297;49.450;6.640;2024-03-02T22:28:23;1.85;;;1.15;;
40588;SDS011;26297;49.450;6.640;2024-03-02T22:31:26;2.72;;;1.40;;
40588;SDS011;26297;49.450;6.640;2024-03-02T22:34:31;1.27;;;1.02;;
40588;SDS011;26297;49.450;6.640;2024-03-02T22:37:35;1.42;;;1.13;;
40588;SDS011;26297;49.450;6.640;2024-03-02T22:43:27;3.63;;;1.05;;
40588;SDS011;26297;49.450;6.640;2024-03-02T22:46:30;0.73;;;0.68;;
40588;SDS011;26297;49.450;6.640;2024-03-02T22:49:33;1.58;;;1.27;;
40588;SDS011;26297;49.450;6.640;2024-03-02T22:52:36;3.67;;;1.20;;
40588;SDS011;26297;49.450;6.640;2024-03-02T22:55:39;1.05;;;0.98;;
40588;SDS011;26297;49.450;6.640;2024-03-02T22:58:42;1.45;;;1.10;;
40588;SDS011;26297;49.450;6.640;2024-03-02T23:01:46;1.50;;;1.10;;
